Time;durP1;ratioP1;P1;durP2;ratioP2;P2;SDS_P1;SDS_P2;PMS_P1;PMS_P2;Temp;Humidity;BMP_temperature;BMP_pressure;BME280_temperature;BME280_humidity;BME280_pressure;Samples;Min_cycle;Max_cycle;Signal;HPM_P1;HPM_P2
2023/02/19 00:01:18;;;;;;;3.38;1.38;;;;;;;;;;5052062;28;20068;-82
2023/02/19 00:04:01;;;;;;;2.17;1.10;;;;;;;;;;5051181;28;20596;-82
2023/02/19 00:06:29;;;;;;;1.95;1.17;;;;;;;;;;5036356;28;20080;-83
2023/02/19 00:08:55;;;;;;;2.47;1.42;;;;;;;;;;5050511;28;20049;-82
2023/02/19 00:11:23;;;;;;;3.08;1.23;;;;;;;;;;5052277;28;20044;-83
2023/02/19 00:13:51;;;;;;;2.05;1.20;;;;;;;;;;5051837;28;20469;-82
2023/02/19 00:16:17;;;;;;;3.30;1.05;;;;;;;;;;5050391;28;20051;-83
2023/02/19 00:18:44;;;;;;;3.45;1.00;;;;;;;;;;5050584;28;20049;-82
2023/02/19 00:21:11;;;;;;;2.80;1.10;;;;;;;;;;5051069;28;20045;-83
2023/02/19 00:23:38;;;;;;;1.73;1.15;;;;;;;;;;5048132;28;20100;-82
2023/02/19 00:26:05;;;;;;;3.00;1.42;;;;;;;;;;5046367;28;20057;-82
2023/02/19 00:28:44;;;;;;;2.13;1.25;;;;;;;;;;5031576;28;20053;-82
2023/02/19 00:31:18;;;;;;;4.78;1.63;;;;;;;;;;5031743;28;20140;-83
2023/02/19 00:33:45;;;;;;;2.65;1.25;;;;;;;;;;5030057;28;20259;-82
2023/02/19 00:36:11;;;;;;;1.52;1.00;;;;;;;;;;5030574;28;20045;-82
2023/02/19 00:38:38;;;;;;;2.65;1.40;;;;;;;;;;5029882;28;20128;-81
2023/02/19 00:41:17;;;;;;;2.83;1.10;;;;;;;;;;5030969;28;20050;-81
2023/02/19 00:43:44;;;;;;;7.35;1.48;;;;;;;;;;5013766;28;20124;-81
2023/02/19 00:46:10;;;;;;;2.67;1.50;;;;;;;;;;5030898;28;20103;-82
2023/02/19 00:48:37;;;;;;;2.45;1.00;;;;;;;;;;5030311;28;20480;-82
2023/02/19 00:51:03;;;;;;;3.17;1.17;;;;;;;;;;5031228;28;20068;-83
2023/02/19 00:53:29;;;;;;;3.53;1.15;;;;;;;;;;5030876;28;20060;-81
2023/02/19 00:55:56;;;;;;;4.75;1.58;;;;;;;;;;5013181;28;20518;-82
2023/02/19 00:58:22;;;;;;;1.77;1.00;;;;;;;;;;5030321;28;20049;-83
2023/02/19 01:00:49;;;;;;;2.88;1.30;;;;;;;;;;5031917;28;20049;-82
2023/02/19 01:03:15;;;;;;;2.20;1.40;;;;;;;;;;5030666;28;20049;-82
2023/02/19 01:05:41;;;;;;;4.97;1.45;;;;;;;;;;5032186;28;20069;-82
2023/02/19 01:08:08;;;;;;;3.08;1.67;;;;;;;;;;5013403;28;20061;-82
2023/02/19 01:10:34;;;;;;;3.83;1.90;;;;;;;;;;5034225;28;20057;-84
2023/02/19 01:13:01;;;;;;;4.35;1.90;;;;;;;;;;5036385;28;20061;-83
2023/02/19 01:15:27;;;;;;;3.17;1.77;;;;;;;;;;5038348;28;20045;-83
2023/02/19 01:17:53;;;;;;;2.60;1.88;;;;;;;;;;5042241;28;20084;-84
2023/02/19 01:20:20;;;;;;;5.30;2.10;;;;;;;;;;5036417;28;20128;-84
2023/02/19 01:22:46;;;;;;;2.35;1.77;;;;;;;;;;5036547;28;20049;-84
2023/02/19 01:25:12;;;;;;;2.95;1.85;;;;;;;;;;5035515;28;20053;-84
2023/02/19 01:27:39;;;;;;;2.63;1.75;;;;;;;;;;5034715;28;20441;-83
2023/02/19 01:30:06;;;;;;;4.93;2.20;;;;;;;;;;5034643;28;20049;-84
2023/02/19 01:32:32;;;;;;;4.78;2.33;;;;;;;;;;5034843;28;20053;-83
2023/02/19 01:34:58;;;;;;;6.03;2.78;;;;;;;;;;5035358;28;20136;-85
2023/02/19 01:37:25;;;;;;;11.20;3.97;;;;;;;;;;5033261;28;20053;-84
2023/02/19 01:39:51;;;;;;;4.30;2.80;;;;;;;;;;5034580;28;20132;-84
2023/02/19 01:42:18;;;;;;;4.85;3.17;;;;;;;;;;5035597;28;20045;-84
2023/02/19 01:44:45;;;;;;;5.93;3.50;;;;;;;;;;5036266;28;20531;-84
2023/02/19 01:47:12;;;;;;;7.05;4.30;;;;;;;;;;5034997;28;20046;-86
2023/02/19 01:49:47;;;;;;;7.28;4.22;;;;;;;;;;5033715;28;20045;-84
2023/02/19 01:52:20;;;;;;;6.75;3.88;;;;;;;;;;5035056;28;20464;-84
2023/02/19 01:54:48;;;;;;;5.38;3.55;;;;;;;;;;5035629;28;20045;-84
2023/02/19 01:57:20;;;;;;;5.75;3.38;;;;;;;;;;5034532;28;20071;-83
2023/02/19 01:59:48;;;;;;;5.20;3.38;;;;;;;;;;5035196;28;20077;-83
2023/02/19 02:02:15;;;;;;;4.93;3.40;;;;;;;;;;5017974;28;20057;-83
2023/02/19 02:04:41;;;;;;;4.88;3.25;;;;;;;;;;5034719;28;20045;-84
2023/02/19 02:10:18;;;;;;;6.00;3.40;;;;;;;;;;5033483;28;20511;-82
2023/02/19 02:12:40;;;;;;;5.00;3.05;;;;;;;;;;5035884;28;20053;-84
2023/02/19 02:15:08;;;;;;;5.20;2.75;;;;;;;;;;5043591;28;20128;-83
2023/02/19 02:17:53;;;;;;;5.80;2.83;;;;;;;;;;5033570;28;20062;-84
2023/02/19 02:20:31;;;;;;;4.72;2.85;;;;;;;;;;5033421;28;20076;-84
2023/02/19 02:23:03;;;;;;;3.58;2.50;;;;;;;;;;5033996;28;20073;-83
2023/02/19 02:25:42;;;;;;;4.70;3.10;;;;;;;;;;5017465;28;20045;-82
2023/02/19 02:28:18;;;;;;;4.50;3.20;;;;;;;;;;5016166;28;20050;-83
2023/02/19 02:30:50;;;;;;;6.47;3.08;;;;;;;;;;5015805;28;20049;-83
2023/02/19 02:33:38;;;;;;;4.70;3.25;;;;;;;;;;5015290;28;20132;-83
2023/02/19 02:36:07;;;;;;;7.20;2.83;;;;;;;;;;5015298;28;20054;-83
2023/02/19 02:38:38;;;;;;;5.68;3.88;;;;;;;;;;5015155;28;20526;-84
2023/02/19 02:41:05;;;;;;;5.05;3.30;;;;;;;;;;5016014;28;20406;-84
2023/02/19 02:43:32;;;;;;;5.25;3.65;;;;;;;;;;5020147;28;20215;-84
2023/02/19 02:45:58;;;;;;;5.13;3.20;;;;;;;;;;5021990;28;20113;-84
2023/02/19 02:48:37;;;;;;;3.95;2.80;;;;;;;;;;5004417;28;20050;-83
2023/02/19 02:51:18;;;;;;;5.90;3.60;;;;;;;;;;5007156;28;20068;-83
2023/02/19 02:56:30;;;;;;;6.03;3.20;;;;;;;;;;5017292;28;20060;-83
2023/02/19 02:58:57;;;;;;;4.53;2.95;;;;;;;;;;5016008;28;20054;-84
2023/02/19 03:04:14;;;;;;;4.50;2.80;;;;;;;;;;5014105;28;20050;-84
2023/02/19 03:06:42;;;;;;;5.55;3.30;;;;;;;;;;5014616;28;20372;-82
2023/02/19 03:09:11;;;;;;;5.57;3.33;;;;;;;;;;5012887;28;20481;-84
2023/02/19 03:20:08;;;;;;;5.72;3.33;;;;;;;;;;5012039;28;20053;-82
2023/02/19 03:22:36;;;;;;;5.00;2.72;;;;;;;;;;5012916;28;20045;-82
2023/02/19 03:27:51;;;;;;;4.70;2.90;;;;;;;;;;5050100;28;20112;-82
2023/02/19 03:30:23;;;;;;;3.58;2.50;;;;;;;;;;5036808;28;20056;-83
2023/02/19 03:33:15;;;;;;;5.32;2.80;;;;;;;;;;5019582;28;20049;-84
2023/02/19 03:35:45;;;;;;;4.78;2.78;;;;;;;;;;5023350;28;20525;-83
2023/02/19 03:38:37;;;;;;;4.18;2.67;;;;;;;;;;5032688;28;20045;-84
2023/02/19 03:41:26;;;;;;;4.10;2.70;;;;;;;;;;5003981;28;20045;-83
2023/02/19 03:44:06;;;;;;;3.10;2.25;;;;;;;;;;5036099;28;20046;-84
2023/02/19 03:46:36;;;;;;;4.13;2.40;;;;;;;;;;5033229;28;20045;-85
2023/02/19 03:49:08;;;;;;;3.17;2.28;;;;;;;;;;5034103;28;20048;-85
2023/02/19 03:51:36;;;;;;;4.25;2.45;;;;;;;;;;5038526;28;20117;-84
2023/02/19 03:54:29;;;;;;;3.92;2.40;;;;;;;;;;5037385;28;20045;-85
2023/02/19 03:56:59;;;;;;;3.65;2.30;;;;;;;;;;5030628;28;20067;-86
2023/02/19 03:59:51;;;;;;;4.05;2.42;;;;;;;;;;5035182;28;20133;-85
2023/02/19 04:02:25;;;;;;;3.85;2.65;;;;;;;;;;5014501;28;20159;-84
2023/02/19 04:04:55;;;;;;;3.53;2.17;;;;;;;;;;5035581;28;20045;-85
2023/02/19 04:07:22;;;;;;;3.63;2.47;;;;;;;;;;5039184;28;20088;-84
2023/02/19 04:09:50;;;;;;;4.05;2.25;;;;;;;;;;5044563;28;20073;-84
2023/02/19 04:12:17;;;;;;;5.50;2.63;;;;;;;;;;5041616;28;20128;-84
2023/02/19 04:14:59;;;;;;;3.28;2.13;;;;;;;;;;5043141;28;20049;-84
2023/02/19 04:17:28;;;;;;;4.22;2.30;;;;;;;;;;5042249;28;20049;-84
2023/02/19 04:19:56;;;;;;;4.25;2.67;;;;;;;;;;5043785;28;20056;-84
2023/02/19 04:22:23;;;;;;;3.60;2.58;;;;;;;;;;5042326;28;20148;-83
2023/02/19 04:24:51;;;;;;;3.55;2.50;;;;;;;;;;5042026;28;20053;-82
2023/02/19 04:27:17;;;;;;;6.30;3.30;;;;;;;;;;5035681;28;20055;-85
2023/02/19 04:29:44;;;;;;;4.80;3.33;;;;;;;;;;5061031;28;20049;-84
2023/02/19 04:32:11;;;;;;;4.85;3.10;;;;;;;;;;5051808;28;20139;-83
2023/02/19 04:34:37;;;;;;;4.68;3.13;;;;;;;;;;5050024;28;20041;-83
2023/02/19 04:37:04;;;;;;;3.90;2.70;;;;;;;;;;5049498;28;20055;-82
2023/02/19 04:39:30;;;;;;;4.13;3.10;;;;;;;;;;5042266;28;20510;-82
2023/02/19 04:41:57;;;;;;;4.60;3.15;;;;;;;;;;5030105;28;20473;-83
2023/02/19 04:44:23;;;;;;;4.25;3.08;;;;;;;;;;5031331;28;20090;-84
2023/02/19 04:46:49;;;;;;;4.35;2.88;;;;;;;;;;5037010;28;20057;-83
2023/02/19 04:49:16;;;;;;;5.13;2.92;;;;;;;;;;5035857;28;20059;-83
2023/02/19 04:51:42;;;;;;;3.90;2.65;;;;;;;;;;5035461;28;20485;-84
2023/02/19 04:54:09;;;;;;;3.83;2.50;;;;;;;;;;5033909;28;20047;-84
2023/02/19 04:56:36;;;;;;;3.55;2.53;;;;;;;;;;5035754;28;20060;-84
2023/02/19 04:59:03;;;;;;;5.75;2.53;;;;;;;;;;5037562;28;20109;-84
2023/02/19 05:01:29;;;;;;;3.85;2.38;;;;;;;;;;5025674;28;20567;-82
2023/02/19 05:03:56;;;;;;;4.03;2.30;;;;;;;;;;5033291;28;20049;-84
2023/02/19 05:06:22;;;;;;;3.10;2.20;;;;;;;;;;5037128;28;20061;-83
2023/02/19 05:08:48;;;;;;;4.25;2.00;;;;;;;;;;5031965;28;20105;-82
2023/02/19 05:11:15;;;;;;;4.85;2.08;;;;;;;;;;5051598;28;20221;-82
2023/02/19 05:13:41;;;;;;;2.45;1.73;;;;;;;;;;5051701;28;20489;-84
2023/02/19 05:16:14;;;;;;;2.67;1.77;;;;;;;;;;5051687;28;20156;-83
2023/02/19 05:18:42;;;;;;;3.13;1.80;;;;;;;;;;5036934;28;20429;-82
2023/02/19 05:21:09;;;;;;;2.35;1.50;;;;;;;;;;5033421;28;20501;-83
2023/02/19 05:23:36;;;;;;;3.63;1.80;;;;;;;;;;5033764;28;20061;-83
2023/02/19 05:26:06;;;;;;;3.75;1.65;;;;;;;;;;5032990;28;20306;-83
2023/02/19 05:28:33;;;;;;;2.22;1.70;;;;;;;;;;5016907;28;20494;-82
2023/02/19 05:31:05;;;;;;;2.72;1.77;;;;;;;;;;5034329;28;20049;-83
2023/02/19 05:33:32;;;;;;;4.63;1.80;;;;;;;;;;5033692;28;20077;-82
2023/02/19 05:35:58;;;;;;;3.55;1.92;;;;;;;;;;5029303;28;20050;-82
2023/02/19 05:38:25;;;;;;;2.72;1.95;;;;;;;;;;5029153;28;20057;-81
2023/02/19 05:40:51;;;;;;;4.60;2.15;;;;;;;;;;5034098;28;20041;-84
2023/02/19 05:43:18;;;;;;;3.95;2.10;;;;;;;;;;5033800;28;20501;-83
2023/02/19 05:45:44;;;;;;;2.47;1.65;;;;;;;;;;5034460;28;20061;-81
2023/02/19 05:48:11;;;;;;;3.10;1.80;;;;;;;;;;5032591;28;20518;-83
2023/02/19 05:50:38;;;;;;;4.80;1.63;;;;;;;;;;5033340;28;20049;-82
2023/02/19 05:53:05;;;;;;;3.30;1.70;;;;;;;;;;5032650;28;20096;-82
2023/02/19 05:55:35;;;;;;;2.17;1.40;;;;;;;;;;5032224;28;20482;-82
2023/02/19 05:58:01;;;;;;;2.45;1.48;;;;;;;;;;5032772;28;20140;-80
2023/02/19 06:00:27;;;;;;;4.38;1.83;;;;;;;;;;5033001;28;20480;-81
2023/02/19 06:02:54;;;;;;;3.40;1.70;;;;;;;;;;5032686;28;20451;-82
2023/02/19 06:05:20;;;;;;;2.47;1.70;;;;;;;;;;5034458;28;20587;-81
2023/02/19 06:07:49;;;;;;;2.20;1.60;;;;;;;;;;5032959;28;20429;-82
2023/02/19 06:10:15;;;;;;;3.20;1.70;;;;;;;;;;5033160;28;20053;-82
2023/02/19 06:12:42;;;;;;;3.33;1.70;;;;;;;;;;5034432;28;20128;-82
2023/02/19 06:15:08;;;;;;;3.22;1.40;;;;;;;;;;5034185;28;20041;-81
2023/02/19 06:17:35;;;;;;;4.20;1.63;;;;;;;;;;5008240;28;20064;-84
2023/02/19 06:20:01;;;;;;;3.03;1.55;;;;;;;;;;5017844;28;20053;-84
2023/02/19 06:22:28;;;;;;;2.88;1.67;;;;;;;;;;5017751;28;20056;-84
2023/02/19 06:24:54;;;;;;;4.47;1.80;;;;;;;;;;5035084;28;20132;-84
2023/02/19 06:27:21;;;;;;;2.33;1.55;;;;;;;;;;5023157;28;20080;-83
2023/02/19 06:29:47;;;;;;;4.82;2.00;;;;;;;;;;5040743;28;20056;-82
2023/02/19 06:32:13;;;;;;;2.42;1.60;;;;;;;;;;5015279;28;20049;-83
2023/02/19 06:34:40;;;;;;;3.00;1.15;;;;;;;;;;5032466;28;20057;-83
2023/02/19 06:37:06;;;;;;;2.42;1.10;;;;;;;;;;5031880;28;20045;-83
2023/02/19 06:39:33;;;;;;;2.35;1.00;;;;;;;;;;5033170;28;20059;-83
2023/02/19 06:41:59;;;;;;;4.00;0.88;;;;;;;;;;5015649;28;20518;-83
2023/02/19 06:44:25;;;;;;;3.63;0.90;;;;;;;;;;5033758;28;20049;-82
2023/02/19 06:46:55;;;;;;;3.55;0.90;;;;;;;;;;5032569;28;20057;-82
2023/02/19 06:49:21;;;;;;;2.42;0.90;;;;;;;;;;5014780;28;20104;-82
2023/02/19 06:51:48;;;;;;;2.58;1.10;;;;;;;;;;5033103;28;20053;-83
2023/02/19 06:54:14;;;;;;;1.30;0.82;;;;;;;;;;5012404;28;20159;-83
2023/02/19 06:56:40;;;;;;;1.63;0.82;;;;;;;;;;5014970;28;20054;-83
2023/02/19 06:59:09;;;;;;;1.85;0.88;;;;;;;;;;5033094;28;20053;-83
2023/02/19 07:01:35;;;;;;;1.75;0.95;;;;;;;;;;5033974;28;20041;-82
2023/02/19 07:04:03;;;;;;;1.30;0.75;;;;;;;;;;5030546;28;20080;-83
2023/02/19 07:06:29;;;;;;;1.92;1.15;;;;;;;;;;5031223;28;20415;-83
2023/02/19 07:08:57;;;;;;;1.80;0.95;;;;;;;;;;5028928;28;20045;-82
2023/02/19 07:11:24;;;;;;;1.40;0.70;;;;;;;;;;5030796;28;20045;-82
2023/02/19 07:13:55;;;;;;;1.33;0.80;;;;;;;;;;5033185;28;20049;-82
2023/02/19 07:16:21;;;;;;;1.88;0.73;;;;;;;;;;5032082;28;20053;-81
2023/02/19 07:18:48;;;;;;;2.97;0.82;;;;;;;;;;5032564;28;20465;-83
2023/02/19 07:21:15;;;;;;;1.05;0.70;;;;;;;;;;5032765;28;20049;-82
2023/02/19 07:23:41;;;;;;;1.63;0.65;;;;;;;;;;5032280;28;20054;-83
2023/02/19 07:26:09;;;;;;;2.80;0.70;;;;;;;;;;5018458;28;20044;-83
2023/02/19 07:28:35;;;;;;;1.17;0.80;;;;;;;;;;5052781;28;20179;-83
2023/02/19 07:31:02;;;;;;;2.50;0.90;;;;;;;;;;5052980;28;20048;-83
2023/02/19 07:33:29;;;;;;;1.30;0.68;;;;;;;;;;5051362;28;20132;-82
2023/02/19 07:35:56;;;;;;;3.28;0.90;;;;;;;;;;5051622;28;20052;-83
2023/02/19 07:38:23;;;;;;;1.85;0.82;;;;;;;;;;5051124;28;20067;-83
2023/02/19 07:40:57;;;;;;;6.00;1.20;;;;;;;;;;5052005;28;20053;-83
2023/02/19 07:43:24;;;;;;;3.88;1.33;;;;;;;;;;5051378;28;20049;-82
2023/02/19 07:45:50;;;;;;;1.52;0.90;;;;;;;;;;5052534;28;20059;-83
2023/02/19 07:48:17;;;;;;;2.42;1.45;;;;;;;;;;5048679;28;20076;-83
2023/02/19 07:50:49;;;;;;;1.83;1.13;;;;;;;;;;5052256;28;20057;-82
2023/02/19 07:53:16;;;;;;;3.25;1.33;;;;;;;;;;5051503;28;20049;-83
2023/02/19 07:55:42;;;;;;;1.65;0.98;;;;;;;;;;5051952;28;20301;-82
2023/02/19 07:58:08;;;;;;;1.95;1.05;;;;;;;;;;5051930;28;20068;-82
2023/02/19 08:00:37;;;;;;;2.55;1.02;;;;;;;;;;5052702;28;20049;-81
2023/02/19 08:03:03;;;;;;;2.00;0.88;;;;;;;;;;5051948;28;20056;-82
2023/02/19 08:05:31;;;;;;;1.35;0.75;;;;;;;;;;5052030;28;20110;-83
2023/02/19 08:07:58;;;;;;;1.27;0.70;;;;;;;;;;5051124;28;20067;-83
2023/02/19 08:13:21;;;;;;;0.98;0.55;;;;;;;;;;5040500;28;20054;-83
2023/02/19 08:15:52;;;;;;;1.13;0.75;;;;;;;;;;5014216;28;20045;-83
2023/02/19 08:18:24;;;;;;;5.80;0.85;;;;;;;;;;5030920;28;20046;-83
2023/02/19 08:20:51;;;;;;;6.00;1.20;;;;;;;;;;5019431;28;20060;-83
2023/02/19 08:23:19;;;;;;;4.68;1.00;;;;;;;;;;5018356;28;20060;-84
2023/02/19 08:25:46;;;;;;;2.22;0.90;;;;;;;;;;5036984;28;20061;-83
2023/02/19 08:28:12;;;;;;;2.67;0.80;;;;;;;;;;5055185;28;20215;-83
2023/02/19 08:30:39;;;;;;;2.83;1.05;;;;;;;;;;5057698;28;20049;-83
2023/02/19 08:33:07;;;;;;;2.85;1.50;;;;;;;;;;5056375;28;20045;-84
2023/02/19 08:35:35;;;;;;;4.53;1.60;;;;;;;;;;5038262;28;20053;-84
2023/02/19 08:38:02;;;;;;;3.17;1.63;;;;;;;;;;5054514;28;20049;-83
2023/02/19 08:40:28;;;;;;;2.47;1.48;;;;;;;;;;5055695;28;20159;-83
2023/02/19 08:42:54;;;;;;;2.10;1.20;;;;;;;;;;5056225;28;20056;-83
2023/02/19 08:45:23;;;;;;;3.88;1.40;;;;;;;;;;5056629;28;20051;-83
2023/02/19 08:47:49;;;;;;;5.22;1.85;;;;;;;;;;5054726;28;20140;-83
2023/02/19 08:50:15;;;;;;;6.50;1.80;;;;;;;;;;5038087;28;20436;-83
2023/02/19 08:52:42;;;;;;;10.82;5.85;;;;;;;;;;5055906;28;20049;-83
2023/02/19 08:55:08;;;;;;;6.60;2.95;;;;;;;;;;5055533;28;20224;-82
2023/02/19 08:57:36;;;;;;;23.30;10.55;;;;;;;;;;5038051;28;20063;-83
2023/02/19 09:00:03;;;;;;;2.42;1.63;;;;;;;;;;5056924;28;20162;-83
2023/02/19 09:02:30;;;;;;;4.40;1.88;;;;;;;;;;5041920;28;20072;-84
2023/02/19 09:04:56;;;;;;;3.45;1.67;;;;;;;;;;5066690;28;20108;-84
2023/02/19 09:07:23;;;;;;;3.28;1.90;;;;;;;;;;5069178;28;20064;-83
2023/02/19 09:09:49;;;;;;;3.15;2.03;;;;;;;;;;5063171;28;20087;-83
2023/02/19 09:12:15;;;;;;;3.28;1.60;;;;;;;;;;5052820;28;20096;-82
2023/02/19 09:14:42;;;;;;;2.03;1.40;;;;;;;;;;5068782;28;20141;-83
2023/02/19 09:17:08;;;;;;;2.95;1.70;;;;;;;;;;5068372;28;20049;-82
2023/02/19 09:19:35;;;;;;;3.17;1.75;;;;;;;;;;5070477;28;20104;-83
2023/02/19 09:22:03;;;;;;;5.63;2.60;;;;;;;;;;5062331;28;20131;-83
2023/02/19 09:24:29;;;;;;;2.83;1.85;;;;;;;;;;5038573;28;20154;-82
2023/02/19 09:26:56;;;;;;;2.60;1.73;;;;;;;;;;5044881;28;20053;-85
2023/02/19 09:29:24;;;;;;;2.45;1.50;;;;;;;;;;5019499;28;20049;-81
2023/02/19 09:31:50;;;;;;;2.58;1.52;;;;;;;;;;5033575;28;20140;-83
2023/02/19 09:34:16;;;;;;;3.20;2.13;;;;;;;;;;5033288;28;20081;-84
2023/02/19 09:36:43;;;;;;;4.60;1.60;;;;;;;;;;5039637;28;20045;-84
2023/02/19 09:39:11;;;;;;;6.65;3.22;;;;;;;;;;5040091;28;20048;-84
2023/02/19 09:41:48;;;;;;;3.03;1.60;;;;;;;;;;5048341;28;20053;-84
2023/02/19 09:44:34;;;;;;;5.95;1.92;;;;;;;;;;5042806;28;20506;-84
2023/02/19 09:47:04;;;;;;;1.95;1.13;;;;;;;;;;5046761;28;20057;-84
2023/02/19 09:49:34;;;;;;;1.73;1.10;;;;;;;;;;5040257;28;20503;-84
2023/02/19 09:52:17;;;;;;;3.65;1.92;;;;;;;;;;5040514;28;20095;-84
2023/02/19 09:54:44;;;;;;;4.93;2.30;;;;;;;;;;5042195;28;20502;-84
2023/02/19 09:57:15;;;;;;;5.25;2.97;;;;;;;;;;5040709;28;20051;-85
2023/02/19 09:59:49;;;;;;;12.27;5.78;;;;;;;;;;5040344;28;20481;-85
2023/02/19 10:02:15;;;;;;;12.52;5.75;;;;;;;;;;5039017;28;20109;-84
2023/02/19 10:04:43;;;;;;;11.63;5.38;;;;;;;;;;5032941;28;20053;-83
2023/02/19 10:07:14;;;;;;;9.23;4.53;;;;;;;;;;5015066;28;20091;-84
2023/02/19 10:09:40;;;;;;;6.32;3.65;;;;;;;;;;5033749;28;20211;-83
2023/02/19 10:12:13;;;;;;;7.95;4.38;;;;;;;;;;5033465;28;20049;-83
2023/02/19 10:14:43;;;;;;;6.93;3.00;;;;;;;;;;5033446;28;20139;-85
2023/02/19 10:17:12;;;;;;;9.23;3.63;;;;;;;;;;5033388;28;20469;-85
2023/02/19 10:19:39;;;;;;;4.85;3.35;;;;;;;;;;5032973;28;20172;-84
2023/02/19 10:22:06;;;;;;;8.88;4.10;;;;;;;;;;5033306;28;20485;-84
2023/02/19 10:24:32;;;;;;;5.50;2.75;;;;;;;;;;5032912;28;20049;-82
2023/02/19 10:26:59;;;;;;;3.80;2.65;;;;;;;;;;5044497;28;20053;-84
2023/02/19 10:29:26;;;;;;;5.55;3.45;;;;;;;;;;5036557;28;20055;-84
2023/02/19 10:32:11;;;;;;;12.43;5.47;;;;;;;;;;5056063;28;20164;-84
2023/02/19 10:34:37;;;;;;;13.55;5.60;;;;;;;;;;5055172;28;20044;-85
2023/02/19 10:37:08;;;;;;;20.02;8.57;;;;;;;;;;5054983;28;20056;-86
2023/02/19 10:39:37;;;;;;;18.23;8.52;;;;;;;;;;5055377;28;20045;-86
2023/02/19 10:42:04;;;;;;;5.32;2.70;;;;;;;;;;5063272;28;20045;-86
2023/02/19 10:44:37;;;;;;;9.25;3.53;;;;;;;;;;5066948;28;20045;-85
2023/02/19 10:47:04;;;;;;;13.48;5.28;;;;;;;;;;5066363;28;20079;-85
2023/02/19 10:49:32;;;;;;;19.38;7.85;;;;;;;;;;5066361;28;20112;-85
2023/02/19 10:52:01;;;;;;;13.55;5.18;;;;;;;;;;5055760;28;20136;-85
2023/02/19 10:54:30;;;;;;;10.50;4.15;;;;;;;;;;5054616;28;20532;-85
2023/02/19 10:57:33;;;;;;;6.45;2.90;;;;;;;;;;5054145;28;20048;-84
2023/02/19 11:00:01;;;;;;;6.68;3.10;;;;;;;;;;4973431;28;20058;-84
2023/02/19 11:02:29;;;;;;;8.80;3.00;;;;;;;;;;5039012;28;20090;-83
2023/02/19 11:05:04;;;;;;;6.45;2.80;;;;;;;;;;5054114;28;20432;-84
2023/02/19 11:07:31;;;;;;;;;;;;;;;;;;5054139;28;20079;-83
2023/02/19 11:09:58;;;;;;;5.18;2.83;;;;;;;;;;5054537;28;19925;-84
2023/02/19 11:12:25;;;;;;;4.13;2.38;;;;;;;;;;5036326;28;20080;-84
2023/02/19 11:14:52;;;;;;;4.70;1.80;;;;;;;;;;5054013;28;20084;-83
2023/02/19 11:17:24;;;;;;;3.70;1.83;;;;;;;;;;5052578;28;20048;-84
2023/02/19 11:19:52;;;;;;;5.25;1.50;;;;;;;;;;5053992;28;20182;-83
2023/02/19 11:22:30;;;;;;;5.97;1.20;;;;;;;;;;5053141;28;20052;-84
2023/02/19 11:25:01;;;;;;;3.35;1.27;;;;;;;;;;5035100;28;20505;-83
2023/02/19 11:27:28;;;;;;;5.50;1.45;;;;;;;;;;5037728;28;20237;-84
2023/02/19 11:29:54;;;;;;;3.72;1.38;;;;;;;;;;5034970;28;20501;-84
2023/02/19 11:32:25;;;;;;;5.55;1.55;;;;;;;;;;5015471;28;20053;-84
2023/02/19 11:35:12;;;;;;;5.93;1.73;;;;;;;;;;5035221;28;20373;-83
2023/02/19 11:37:53;;;;;;;7.82;1.80;;;;;;;;;;5014811;28;20488;-84
2023/02/19 11:40:22;;;;;;;3.55;1.30;;;;;;;;;;5031806;28;20068;-82
2023/02/19 11:42:54;;;;;;;6.95;1.20;;;;;;;;;;5033261;28;20048;-83
2023/02/19 11:45:20;;;;;;;3.95;1.10;;;;;;;;;;5032858;28;20053;-83
2023/02/19 11:48:05;;;;;;;3.70;1.25;;;;;;;;;;5030319;28;20057;-84
2023/02/19 11:50:35;;;;;;;3.03;1.30;;;;;;;;;;5031804;28;20049;-83
2023/02/19 11:53:01;;;;;;;3.53;1.00;;;;;;;;;;5031767;28;20425;-83
2023/02/19 11:55:46;;;;;;;1.52;0.80;;;;;;;;;;5012368;28;20063;-82
2023/02/19 11:58:39;;;;;;;3.03;0.60;;;;;;;;;;5031740;28;20056;-82
2023/02/19 12:01:24;;;;;;;4.50;0.63;;;;;;;;;;5002124;28;20045;-82
2023/02/19 12:04:10;;;;;;;2.80;1.30;;;;;;;;;;5031864;28;20045;-83
2023/02/19 12:06:42;;;;;;;3.90;1.27;;;;;;;;;;5015391;28;20072;-83
2023/02/19 12:09:21;;;;;;;3.55;1.00;;;;;;;;;;5015781;28;20052;-83
2023/02/19 12:11:54;;;;;;;6.28;1.65;;;;;;;;;;5032288;28;20053;-83
2023/02/19 12:14:23;;;;;;;8.35;2.15;;;;;;;;;;5032595;28;20107;-81
2023/02/19 12:16:57;;;;;;;9.27;1.52;;;;;;;;;;5031927;28;20134;-83
2023/02/19 12:19:23;;;;;;;10.68;2.58;;;;;;;;;;5013960;28;20046;-84
2023/02/19 12:22:04;;;;;;;4.82;2.00;;;;;;;;;;5032358;28;20061;-83
2023/02/19 12:24:57;;;;;;;4.28;1.20;;;;;;;;;;5033586;28;20404;-83
2023/02/19 12:27:44;;;;;;;2.13;1.08;;;;;;;;;;5028333;28;20072;-84
2023/02/19 12:30:13;;;;;;;2.47;1.00;;;;;;;;;;5035917;28;20048;-81
2023/02/19 12:32:46;;;;;;;4.97;2.10;;;;;;;;;;5054547;28;20049;-84
2023/02/19 12:35:27;;;;;;;4.07;1.42;;;;;;;;;;5053646;28;20078;-81
2023/02/19 12:37:57;;;;;;;3.22;1.00;;;;;;;;;;5051022;28;20044;-82
2023/02/19 12:40:33;;;;;;;3.42;0.95;;;;;;;;;;5034306;28;20065;-82
2023/02/19 12:42:59;;;;;;;;;;;;;;;;;;5052488;28;20076;-82
2023/02/19 12:45:37;;;;;;;4.10;1.42;;;;;;;;;;5051813;28;19920;-84
2023/02/19 12:48:22;;;;;;;4.05;1.25;;;;;;;;;;5050130;28;20075;-83
2023/02/19 12:50:51;;;;;;;4.93;1.40;;;;;;;;;;5050863;28;20053;-84
2023/02/19 12:53:17;;;;;;;3.63;1.27;;;;;;;;;;5051643;28;20053;-83
2023/02/19 12:55:45;;;;;;;3.25;1.10;;;;;;;;;;5051050;28;20049;-83
2023/02/19 12:58:19;;;;;;;2.70;1.50;;;;;;;;;;5050772;28;20048;-83
2023/02/19 13:00:49;;;;;;;5.72;1.73;;;;;;;;;;5051234;28;20489;-82
2023/02/19 13:03:23;;;;;;;3.95;1.50;;;;;;;;;;5050700;28;20116;-84
2023/02/19 13:05:54;;;;;;;6.70;2.65;;;;;;;;;;5051933;28;20076;-83
2023/02/19 13:08:25;;;;;;;6.60;2.47;;;;;;;;;;5054427;28;20136;-84
2023/02/19 13:10:59;;;;;;;10.35;2.17;;;;;;;;;;5055402;28;20053;-83
2023/02/19 13:13:40;;;;;;;3.40;1.20;;;;;;;;;;5037991;28;20059;-82
2023/02/19 13:16:12;;;;;;;4.28;1.90;;;;;;;;;;5055977;28;20144;-82
2023/02/19 13:18:43;;;;;;;2.93;1.20;;;;;;;;;;5053991;28;20147;-82
2023/02/19 13:21:11;;;;;;;4.28;1.60;;;;;;;;;;5054296;28;20045;-82
2023/02/19 13:23:58;;;;;;;3.78;1.40;;;;;;;;;;5055272;28;20047;-84
2023/02/19 13:26:30;;;;;;;3.42;1.23;;;;;;;;;;5047283;28;20054;-82
2023/02/19 13:29:06;;;;;;;3.80;1.45;;;;;;;;;;5035203;28;20045;-82
2023/02/19 13:31:33;;;;;;;4.55;1.30;;;;;;;;;;5034774;28;20052;-83
2023/02/19 13:34:15;;;;;;;3.17;1.25;;;;;;;;;;5033455;28;20049;-83
2023/02/19 13:36:41;;;;;;;2.92;1.35;;;;;;;;;;5032400;28;20053;-82
2023/02/19 13:39:12;;;;;;;3.88;1.02;;;;;;;;;;5015605;28;20057;-81
2023/02/19 13:41:57;;;;;;;5.82;0.90;;;;;;;;;;5034586;28;20101;-82
2023/02/19 13:44:31;;;;;;;7.88;1.20;;;;;;;;;;5033958;28;20045;-82
2023/02/19 13:46:57;;;;;;;3.13;0.90;;;;;;;;;;5033456;28;20068;-84
2023/02/19 13:49:27;;;;;;;1.27;0.55;;;;;;;;;;5034345;28;20053;-84
2023/02/19 13:52:12;;;;;;;5.63;1.05;;;;;;;;;;5035911;28;20050;-82
2023/02/19 13:54:39;;;;;;;5.13;1.00;;;;;;;;;;5034542;28;20072;-82
2023/02/19 13:57:21;;;;;;;3.25;0.68;;;;;;;;;;5018238;28;20041;-82
2023/02/19 13:59:57;;;;;;;2.63;0.90;;;;;;;;;;5018814;28;20053;-82
2023/02/19 14:02:25;;;;;;;2.72;0.70;;;;;;;;;;5035032;28;20528;-82
2023/02/19 14:05:02;;;;;;;5.38;1.08;;;;;;;;;;5035467;28;20075;-82
2023/02/19 14:07:34;;;;;;;3.70;0.90;;;;;;;;;;5034623;28;20060;-83
2023/02/19 14:10:01;;;;;;;2.08;0.70;;;;;;;;;;5034405;28;20053;-83
2023/02/19 14:12:32;;;;;;;3.15;0.88;;;;;;;;;;5034432;28;20132;-83
2023/02/19 14:15:18;;;;;;;5.97;0.80;;;;;;;;;;5033517;28;20064;-82
2023/02/19 14:17:44;;;;;;;3.60;1.00;;;;;;;;;;5030313;28;20057;-82
2023/02/19 14:20:14;;;;;;;4.82;1.00;;;;;;;;;;5032521;28;20371;-83
2023/02/19 14:22:55;;;;;;;3.60;0.85;;;;;;;;;;5033982;28;20132;-83
2023/02/19 14:25:22;;;;;;;2.58;0.85;;;;;;;;;;5032946;28;20129;-82
2023/02/19 14:27:50;;;;;;;4.65;1.45;;;;;;;;;;5051241;28;20445;-83
2023/02/19 14:30:17;;;;;;;5.63;1.08;;;;;;;;;;5053409;28;20474;-82
2023/02/19 14:32:43;;;;;;;1.63;0.90;;;;;;;;;;5053477;28;20055;-82
2023/02/19 14:35:19;;;;;;;5.22;1.00;;;;;;;;;;5052445;28;20389;-83
2023/02/19 14:37:47;;;;;;;3.20;0.90;;;;;;;;;;5052053;28;20057;-83
2023/02/19 14:40:20;;;;;;;2.35;1.08;;;;;;;;;;5052845;28;20040;-82
2023/02/19 14:42:47;;;;;;;3.03;0.82;;;;;;;;;;5052828;28;20053;-82
2023/02/19 14:45:14;;;;;;;2.33;0.90;;;;;;;;;;5053130;28;20136;-82
2023/02/19 14:47:42;;;;;;;4.03;1.05;;;;;;;;;;5050740;28;20140;-82
2023/02/19 14:50:19;;;;;;;2.05;0.80;;;;;;;;;;5053486;28;20045;-83
2023/02/19 14:52:50;;;;;;;2.95;0.70;;;;;;;;;;5052618;28;20053;-82
2023/02/19 14:55:23;;;;;;;2.50;0.70;;;;;;;;;;5055058;28;20246;-82
2023/02/19 14:57:51;;;;;;;4.78;0.95;;;;;;;;;;5056024;28;20132;-82
2023/02/19 15:00:21;;;;;;;4.22;0.90;;;;;;;;;;5056360;28;20056;-82
2023/02/19 15:02:48;;;;;;;7.78;0.90;;;;;;;;;;5055259;28;20084;-83
2023/02/19 15:05:22;;;;;;;3.88;1.00;;;;;;;;;;5054700;28;20051;-82
2023/02/19 15:07:49;;;;;;;4.43;1.05;;;;;;;;;;5058153;28;20157;-82
2023/02/19 15:10:15;;;;;;;9.23;2.15;;;;;;;;;;5053587;28;20524;-82
2023/02/19 15:12:44;;;;;;;4.45;1.25;;;;;;;;;;5057029;28;20055;-82
2023/02/19 15:15:16;;;;;;;4.47;0.98;;;;;;;;;;5055157;28;20057;-82
2023/02/19 15:17:42;;;;;;;5.15;1.40;;;;;;;;;;5061442;28;20041;-81
2023/02/19 15:20:10;;;;;;;2.60;1.10;;;;;;;;;;5053515;28;20091;-82
2023/02/19 15:22:40;;;;;;;6.03;1.08;;;;;;;;;;5033408;28;20139;-82